Time;durP1;ratioP1;P1;durP2;ratioP2;P2;SDS_P1;SDS_P2;PMS_P1;PMS_P2;Temp;Humidity;BMP_temperature;BMP_pressure;BME280_temperature;BME280_humidity;BME280_pressure;Samples;Min_cycle;Max_cycle;Signal;HPM_P1;HPM_P2
2023/07/07 00:00:55;;;;;;;1.23;1.13;;;13.80;99.90;;;;;;5094345;28;20169;-76
2023/07/07 00:03:20;;;;;;;1.60;1.50;;;13.70;99.90;;;;;;5095588;28;20333;-77
2023/07/07 00:05:47;;;;;;;1.50;1.40;;;13.60;1.00;;;;;;5096000;28;20180;-77
2023/07/07 00:08:13;;;;;;;1.20;1.10;;;13.60;99.90;;;;;;5094426;28;20192;-77
2023/07/07 00:10:42;;;;;;;2.13;1.10;;;13.70;99.90;;;;;;5094185;28;20169;-77
2023/07/07 00:13:09;;;;;;;2.37;1.23;;;13.60;99.90;;;;;;5094297;28;20200;-76
2023/07/07 00:15:34;;;;;;;1.43;1.13;;;13.60;99.90;;;;;;5095951;28;20165;-76
2023/07/07 00:18:00;;;;;;;28.37;2.60;;;13.50;1.00;;;;;;5094166;28;20198;-76
2023/07/07 00:20:25;;;;;;;2.40;1.70;;;13.30;1.00;;;;;;5093992;28;20180;-76
2023/07/07 00:22:51;;;;;;;2.87;1.60;;;13.20;99.90;;;;;;5093736;28;20199;-76
2023/07/07 00:25:17;;;;;;;1.73;1.50;;;13.10;99.90;;;;;;5094046;28;20259;-76
2023/07/07 00:27:43;;;;;;;2.07;1.60;;;13.10;1.00;;;;;;5094023;28;20235;-76
2023/07/07 00:30:09;;;;;;;1.80;1.70;;;13.10;1.00;;;;;;5093173;28;20164;-76
2023/07/07 00:32:36;;;;;;;2.03;1.67;;;13.00;1.00;;;;;;5094288;28;20184;-76
2023/07/07 00:35:02;;;;;;;2.50;1.70;;;13.00;82.90;;;;;;5094115;28;20207;-76
2023/07/07 00:37:27;;;;;;;3.30;1.40;;;12.90;1.00;;;;;;5093926;28;20164;-76
2023/07/07 00:39:53;;;;;;;2.27;1.50;;;12.80;99.90;;;;;;5095041;28;20195;-76
2023/07/07 00:42:19;;;;;;;1.77;1.50;;;12.80;1.00;;;;;;5094424;28;20619;-76
2023/07/07 00:45:21;;;;;;;2.33;1.60;;;12.70;99.90;;;;;;5095347;28;20539;-76
2023/07/07 00:47:55;;;;;;;3.00;1.60;;;12.70;99.90;;;;;;5071951;28;20249;-77
2023/07/07 00:50:25;;;;;;;1.70;1.60;;;12.50;1.00;;;;;;5087033;28;20172;-77
2023/07/07 00:52:50;;;;;;;1.70;1.50;;;12.60;1.00;;;;;;5094632;28;20203;-76
2023/07/07 00:55:33;;;;;;;3.00;1.80;;;12.60;1.00;;;;;;5094936;28;20242;-76
2023/07/07 00:58:06;;;;;;;2.20;1.70;;;12.50;1.00;;;;;;5093411;28;20206;-77
2023/07/07 01:00:34;;;;;;;1.80;1.70;;;12.50;21.40;;;;;;5093149;28;20172;-77
2023/07/07 01:03:08;;;;;;;1.80;1.70;;;12.40;99.90;;;;;;5093137;28;20675;-76
2023/07/07 01:05:37;;;;;;;2.27;1.73;;;12.50;99.90;;;;;;5093634;28;20251;-76
2023/07/07 01:08:06;;;;;;;2.60;1.60;;;12.40;99.90;;;;;;5094643;28;20200;-76
2023/07/07 01:10:32;;;;;;;1.60;1.50;;;12.40;87.90;;;;;;5093662;28;20161;-76
2023/07/07 01:12:58;;;;;;;2.47;1.73;;;12.50;99.90;;;;;;5093303;28;20185;-77
2023/07/07 01:15:28;;;;;;;2.10;1.90;;;12.60;99.90;;;;;;5093109;28;20661;-76
2023/07/07 01:18:05;;;;;;;2.03;1.70;;;12.60;99.90;;;;;;5093011;28;20205;-76
2023/07/07 01:20:43;;;;;;;2.83;1.70;;;12.60;99.90;;;;;;5092316;28;20235;-76
2023/07/07 01:23:28;;;;;;;73.20;4.73;;;12.50;99.90;;;;;;5092999;28;20204;-76
2023/07/07 01:26:22;;;;;;;2.00;1.80;;;12.50;1.00;;;;;;5094387;28;20204;-76
2023/07/07 01:29:14;;;;;;;1.90;1.63;;;12.60;1.00;;;;;;5094294;28;20738;-76
2023/07/07 01:31:46;;;;;;;2.10;1.90;;;12.80;1.00;;;;;;5093399;28;20195;-76
2023/07/07 01:34:15;;;;;;;2.20;1.80;;;12.90;1.00;;;;;;5093101;28;20608;-76
2023/07/07 01:36:41;;;;;;;3.50;1.80;;;13.00;99.90;;;;;;5092979;28;20194;-76
2023/07/07 01:39:07;;;;;;;2.70;1.97;;;12.80;99.90;;;;;;5093890;28;20180;-76
2023/07/07 01:41:40;;;;;;;2.60;1.83;;;12.60;1.00;;;;;;5092584;28;20179;-76
2023/07/07 01:44:27;;;;;;;111.47;66.53;;;12.40;99.90;;;;;;5094137;28;20202;-76
2023/07/07 01:47:00;;;;;;;36.60;8.13;;;12.30;1.00;;;;;;5093655;28;20169;-76
2023/07/07 01:49:36;;;;;;;2.20;1.87;;;12.20;1.00;;;;;;5073371;28;20208;-76
2023/07/07 01:52:33;;;;;;;1.90;1.70;;;12.10;47.50;;;;;;5073327;28;20211;-76
2023/07/07 01:55:10;;;;;;;3.00;2.00;;;12.10;1.00;;;;;;5072311;28;20161;-77
2023/07/07 01:57:37;;;;;;;3.97;2.10;;;12.20;99.90;;;;;;5072145;28;20219;-76
2023/07/07 02:00:03;;;;;;;2.23;1.83;;;12.10;99.90;;;;;;5071843;28;20179;-76
2023/07/07 02:02:29;;;;;;;4.27;2.00;;;12.30;1.00;;;;;;5072982;28;20189;-76
2023/07/07 02:04:55;;;;;;;2.17;1.97;;;12.20;99.90;;;;;;5072162;28;20180;-76
2023/07/07 02:07:20;;;;;;;3.03;2.00;;;12.20;99.90;;;;;;5072435;28;20161;-76
2023/07/07 02:09:46;;;;;;;3.47;2.17;;;12.20;99.90;;;;;;5072822;28;20566;-76
2023/07/07 02:12:11;;;;;;;2.20;2.00;;;12.10;1.00;;;;;;5071786;28;20603;-76
2023/07/07 02:14:37;;;;;;;3.07;2.17;;;12.00;1.00;;;;;;5071797;28;20169;-76
2023/07/07 02:17:03;;;;;;;3.13;2.03;;;12.10;99.90;;;;;;5072831;28;20194;-76
2023/07/07 02:19:28;;;;;;;2.73;2.00;;;12.00;97.80;;;;;;5071790;28;20172;-76
2023/07/07 02:21:54;;;;;;;2.50;2.10;;;11.80;1.00;;;;;;5071601;28;20738;-76
2023/07/07 02:24:19;;;;;;;2.17;1.90;;;11.80;99.90;;;;;;5071621;28;20181;-76
2023/07/07 02:26:45;;;;;;;2.83;1.93;;;11.80;99.90;;;;;;5071314;28;20183;-76
2023/07/07 02:29:10;;;;;;;2.77;2.10;;;11.80;1.00;;;;;;5072522;28;20254;-76
2023/07/07 02:31:36;;;;;;;3.30;2.00;;;11.80;99.90;;;;;;5070875;28;20190;-76
2023/07/07 02:34:01;;;;;;;2.13;1.87;;;11.80;1.00;;;;;;5071146;28;20261;-76
2023/07/07 02:36:27;;;;;;;2.60;1.87;;;11.80;99.90;;;;;;5072634;28;20176;-76
2023/07/07 02:38:53;;;;;;;2.50;1.97;;;11.80;99.90;;;;;;5071400;28;20188;-76
2023/07/07 02:41:19;;;;;;;3.57;2.20;;;11.80;1.00;;;;;;5071993;28;20173;-76
2023/07/07 02:43:45;;;;;;;2.73;2.30;;;11.70;1.00;;;;;;5071491;28;20177;-76
2023/07/07 02:46:11;;;;;;;1.80;1.70;;;11.80;1.00;;;;;;5072622;28;20199;-76
2023/07/07 02:48:37;;;;;;;2.27;1.90;;;11.70;71.10;;;;;;5071378;28;20262;-76
2023/07/07 02:51:05;;;;;;;3.07;2.00;;;11.60;1.00;;;;;;5070742;28;20201;-76
2023/07/07 02:53:34;;;;;;;2.17;1.90;;;11.80;99.90;;;;;;5075537;28;20693;-76
2023/07/07 02:56:00;;;;;;;2.00;1.80;;;11.90;1.00;;;;;;5076147;28;20177;-76
2023/07/07 02:58:26;;;;;;;2.07;1.87;;;11.70;1.00;;;;;;5076132;28;20191;-76
2023/07/07 03:00:52;;;;;;;2.20;2.00;;;11.50;93.00;;;;;;5075519;28;20310;-76
2023/07/07 03:03:18;;;;;;;3.50;1.83;;;11.30;1.00;;;;;;5074357;28;20701;-76
2023/07/07 03:05:45;;;;;;;3.23;2.17;;;11.20;99.90;;;;;;5074556;28;20188;-76
2023/07/07 03:08:11;;;;;;;3.10;1.93;;;11.30;1.00;;;;;;5074382;28;20205;-76
2023/07/07 03:10:38;;;;;;;2.50;2.20;;;11.20;1.00;;;;;;5074213;28;20177;-76
2023/07/07 03:13:04;;;;;;;2.33;2.07;;;11.20;99.90;;;;;;5074201;28;20200;-76
2023/07/07 03:15:38;;;;;;;2.93;2.40;;;11.20;83.00;;;;;;5075740;28;20177;-76
2023/07/07 03:18:10;;;;;;;2.20;2.00;;;11.20;1.00;;;;;;5074520;28;20168;-76
2023/07/07 03:20:37;;;;;;;2.60;2.10;;;11.20;1.00;;;;;;5073912;28;20181;-76
2023/07/07 03:23:03;;;;;;;2.30;2.00;;;11.20;1.00;;;;;;5075427;28;20200;-76
2023/07/07 03:25:30;;;;;;;2.30;2.07;;;11.20;1.00;;;;;;5074495;28;20655;-76
2023/07/07 03:27:56;;;;;;;2.63;2.00;;;11.10;15.10;;;;;;5073792;28;20192;-76
2023/07/07 03:30:22;;;;;;;2.43;2.00;;;11.10;1.00;;;;;;5083631;28;20182;-76
2023/07/07 03:32:47;;;;;;;2.07;1.87;;;11.10;1.00;;;;;;5093984;28;20212;-76
2023/07/07 03:35:13;;;;;;;2.37;2.17;;;11.10;1.00;;;;;;5095589;28;20185;-76
2023/07/07 03:37:39;;;;;;;2.40;2.00;;;11.00;99.90;;;;;;5092862;28;20181;-76
2023/07/07 03:40:06;;;;;;;2.43;2.07;;;10.80;99.90;;;;;;5093613;28;20180;-76
2023/07/07 03:42:33;;;;;;;2.23;1.93;;;10.90;1.00;;;;;;5094098;28;20598;-76
2023/07/07 03:44:59;;;;;;;2.77;2.27;;;10.90;1.00;;;;;;5093797;28;20219;-76
2023/07/07 03:47:25;;;;;;;2.93;2.13;;;10.90;52.90;;;;;;5094026;28;20203;-76
2023/07/07 03:49:51;;;;;;;2.40;2.20;;;11.10;24.10;;;;;;5094550;28;20223;-76
2023/07/07 03:52:17;;;;;;;3.57;2.23;;;11.00;1.00;;;;;;5093852;28;20219;-76
2023/07/07 03:54:42;;;;;;;2.70;1.97;;;11.10;15.90;;;;;;5095118;28;20184;-76
2023/07/07 03:57:12;;;;;;;3.47;1.90;;;11.30;1.00;;;;;;5095083;28;20678;-76
2023/07/07 03:59:38;;;;;;;2.47;2.10;;;11.30;1.00;;;;;;5093461;28;20173;-74
2023/07/07 04:02:04;;;;;;;2.50;2.13;;;11.40;1.00;;;;;;5093267;28;20279;-76
2023/07/07 04:04:29;;;;;;;3.63;2.27;;;11.20;99.90;;;;;;5093164;28;20176;-76
2023/07/07 04:06:56;;;;;;;2.30;2.10;;;11.00;1.00;;;;;;5094612;28;20222;-76
2023/07/07 04:09:22;;;;;;;2.43;2.10;;;11.00;1.00;;;;;;5094616;28;20200;-76
2023/07/07 04:11:48;;;;;;;2.40;2.10;;;11.00;1.00;;;;;;5093072;28;20193;-76
2023/07/07 04:14:14;;;;;;;4.33;2.50;;;11.10;99.90;;;;;;5093553;28;20172;-76
2023/07/07 04:16:39;;;;;;;3.30;2.20;;;11.20;1.00;;;;;;5093359;28;20176;-76
2023/07/07 04:19:05;;;;;;;3.10;2.00;;;11.00;1.00;;;;;;5094557;28;20172;-76
2023/07/07 04:21:30;;;;;;;3.00;2.33;;;10.90;1.00;;;;;;5093760;28;20549;-76
2023/07/07 04:24:00;;;;;;;2.30;2.10;;;10.90;97.80;;;;;;5093002;28;20176;-76
2023/07/07 04:26:27;;;;;;;2.40;2.20;;;10.90;99.90;;;;;;5093154;28;20183;-76
2023/07/07 04:28:54;;;;;;;2.87;2.20;;;10.80;99.90;;;;;;5093110;28;20262;-76
2023/07/07 04:31:23;;;;;;;2.53;2.20;;;11.00;1.00;;;;;;5092689;28;20271;-76
2023/07/07 04:33:49;;;;;;;2.40;2.10;;;11.00;1.00;;;;;;5094101;28;20195;-76
2023/07/07 04:36:16;;;;;;;2.80;2.20;;;11.00;1.00;;;;;;5094377;28;20180;-76
2023/07/07 04:38:42;;;;;;;3.27;2.40;;;11.10;1.00;;;;;;5094182;28;20531;-76
2023/07/07 04:41:08;;;;;;;2.10;1.90;;;11.10;1.00;;;;;;5093695;28;20211;-76
2023/07/07 04:43:35;;;;;;;2.30;2.10;;;11.10;1.00;;;;;;5093826;28;20219;-76
2023/07/07 04:46:02;;;;;;;2.40;2.20;;;11.20;1.00;;;;;;5093979;28;20187;-76
2023/07/07 04:48:27;;;;;;;3.23;2.13;;;11.20;1.00;;;;;;5092758;28;20208;-76
2023/07/07 04:51:00;;;;;;;2.97;2.40;;;11.30;1.00;;;;;;5092135;28;20180;-76
2023/07/07 04:53:28;;;;;;;2.20;2.00;;;11.40;1.00;;;;;;5092497;28;20689;-76
2023/07/07 04:55:55;;;;;;;3.40;2.50;;;11.40;1.00;;;;;;5093912;28;20173;-76
2023/07/07 04:58:21;;;;;;;2.73;2.47;;;11.40;99.90;;;;;;5095691;28;20178;-77
2023/07/07 05:00:46;;;;;;;3.30;2.40;;;11.50;99.90;;;;;;5094528;28;20208;-76
2023/07/07 05:03:12;;;;;;;2.50;2.30;;;11.60;99.90;;;;;;5092570;28;20188;-76
2023/07/07 05:05:37;;;;;;;2.80;2.50;;;11.60;99.90;;;;;;5093804;28;20226;-76
2023/07/07 05:08:03;;;;;;;2.80;2.47;;;11.70;99.90;;;;;;5093537;28;20194;-76
2023/07/07 05:10:29;;;;;;;2.80;2.37;;;11.80;99.90;;;;;;5091903;28;20174;-76
2023/07/07 05:12:54;;;;;;;3.30;2.20;;;11.80;99.90;;;;;;5093534;28;20195;-76
2023/07/07 05:15:20;;;;;;;3.67;2.70;;;12.00;99.90;;;;;;5091274;28;20172;-76
2023/07/07 05:17:45;;;;;;;3.67;2.67;;;12.00;99.90;;;;;;5092413;28;20168;-76
2023/07/07 05:20:11;;;;;;;3.03;2.70;;;12.10;1.00;;;;;;5092437;28;20654;-77
2023/07/07 05:22:37;;;;;;;3.63;2.80;;;12.20;99.90;;;;;;5093286;28;20199;-77
2023/07/07 05:25:02;;;;;;;2.93;2.60;;;12.30;1.00;;;;;;5094367;28;20175;-77
2023/07/07 05:27:28;;;;;;;6.20;1.77;;;12.30;99.90;;;;;;5095160;28;20202;-78
2023/07/07 05:29:53;;;;;;;2.20;1.87;;;12.80;1.00;;;;;;5093282;28;20188;-78
2023/07/07 05:32:19;;;;;;;14.47;13.60;;;13.60;1.00;;;;;;5093034;28;20188;-76
2023/07/07 05:34:45;;;;;;;3.70;2.67;;;14.00;1.00;;;;;;5093420;28;20171;-77
2023/07/07 05:37:10;;;;;;;4.27;2.90;;;14.00;1.00;;;;;;5093381;28;20171;-77
2023/07/07 05:39:36;;;;;;;407.30;56.60;;;13.70;1.00;;;;;;5093805;28;20224;-74
2023/07/07 05:42:01;;;;;;;18.00;5.33;;;13.50;1.00;;;;;;5092337;28;20198;-76
2023/07/07 05:44:27;;;;;;;4.37;2.70;;;13.40;18.50;;;;;;5093141;28;20619;-77
2023/07/07 05:46:52;;;;;;;2.80;2.60;;;13.30;99.90;;;;;;5093195;28;20169;-77
2023/07/07 05:49:18;;;;;;;3.43;3.07;;;13.30;99.90;;;;;;5094108;28;20220;-77
2023/07/07 05:54:11;;;;;;;4.40;3.03;;;13.30;1.00;;;;;;5030169;28;20202;-79
2023/07/07 05:56:37;;;;;;;3.10;2.70;;;13.40;99.90;;;;;;5033127;28;20174;-79
2023/07/07 05:59:02;;;;;;;3.93;3.40;;;13.50;21.20;;;;;;5015086;28;20170;-78
2023/07/07 06:01:28;;;;;;;3.87;2.93;;;13.60;99.90;;;;;;5032556;28;20193;-79
2023/07/07 06:03:54;;;;;;;3.20;2.90;;;13.70;1.00;;;;;;5051315;28;20235;-80
2023/07/07 06:06:20;;;;;;;136.20;13.03;;;13.80;1.00;;;;;;5035229;28;20188;-80
2023/07/07 06:08:45;;;;;;;4.20;3.10;;;14.00;1.00;;;;;;5052981;28;20212;-81
2023/07/07 06:11:11;;;;;;;3.67;3.27;;;14.00;99.90;;;;;;5052531;28;20170;-80
2023/07/07 06:13:37;;;;;;;3.53;2.97;;;14.10;99.90;;;;;;5035298;28;20205;-80
2023/07/07 06:16:03;;;;;;;3.93;3.10;;;14.20;1.00;;;;;;5052969;28;20197;-81
2023/07/07 06:18:28;;;;;;;3.30;2.90;;;14.30;1.00;;;;;;5034865;28;20177;-80
2023/07/07 06:20:59;;;;;;;3.83;3.03;;;14.40;99.90;;;;;;5034458;28;20178;-80
2023/07/07 06:23:29;;;;;;;4.00;3.00;;;14.40;99.90;;;;;;5035653;28;20205;-80
2023/07/07 06:25:55;;;;;;;3.10;2.63;;;14.50;99.90;;;;;;5054224;28;20623;-80
2023/07/07 06:28:20;;;;;;;4.97;2.90;;;14.60;99.90;;;;;;5057186;28;20284;-80
2023/07/07 06:30:50;;;;;;;3.40;3.10;;;14.80;99.90;;;;;;5038256;28;20184;-79
2023/07/07 06:33:18;;;;;;;3.27;2.97;;;14.90;99.90;;;;;;5038707;28;20287;-79
2023/07/07 06:35:44;;;;;;;4.70;2.70;;;15.10;99.90;;;;;;5056783;28;20204;-79
2023/07/07 06:38:09;;;;;;;3.10;2.80;;;15.20;87.90;;;;;;5038748;28;20213;-78
2023/07/07 06:40:35;;;;;;;4.10;2.80;;;15.20;1.00;;;;;;5055907;28;20680;-79
2023/07/07 06:43:01;;;;;;;3.63;3.10;;;15.40;99.90;;;;;;5056033;28;20280;-79
2023/07/07 06:45:27;;;;;;;3.47;2.80;;;15.50;1.00;;;;;;5038185;28;20178;-78
2023/07/07 06:47:54;;;;;;;4.50;2.80;;;15.70;1.00;;;;;;5055938;28;20177;-80
2023/07/07 06:50:28;;;;;;;3.23;2.73;;;15.80;99.90;;;;;;5055592;28;20181;-78
2023/07/07 06:52:53;;;;;;;2.83;2.47;;;16.00;1.00;;;;;;5037849;28;20259;-79
2023/07/07 06:55:19;;;;;;;4.50;2.77;;;16.10;1.00;;;;;;5038151;28;20178;-78
2023/07/07 06:57:45;;;;;;;2.80;2.60;;;16.30;99.90;;;;;;5037770;28;20170;-79
2023/07/07 07:00:11;;;;;;;3.13;2.60;;;16.50;99.90;;;;;;5054996;28;20178;-79
2023/07/07 07:02:37;;;;;;;3.53;2.40;;;16.60;99.90;;;;;;5037755;28;20205;-79
2023/07/07 07:05:02;;;;;;;3.10;2.63;;;16.70;1.00;;;;;;5031841;28;20178;-79
2023/07/07 07:07:30;;;;;;;3.80;2.60;;;16.80;1.00;;;;;;5036888;28;20233;-78
2023/07/07 07:09:56;;;;;;;4.07;2.33;;;17.00;1.00;;;;;;5039293;28;20270;-79
2023/07/07 07:12:21;;;;;;;2.40;2.20;;;17.10;99.90;;;;;;5055463;28;20679;-78
2023/07/07 07:14:47;;;;;;;4.73;2.87;;;17.20;99.90;;;;;;5042563;28;20189;-79
2023/07/07 07:17:12;;;;;;;2.53;2.30;;;17.30;99.90;;;;;;5054873;28;20174;-79
2023/07/07 07:19:38;;;;;;;3.27;2.30;;;17.50;1.00;;;;;;5055370;28;20177;-79
2023/07/07 07:22:04;;;;;;;26.00;3.43;;;17.60;99.90;;;;;;5054629;28;20284;-79
2023/07/07 07:24:29;;;;;;;3.70;2.40;;;17.70;1.00;;;;;;5054856;28;20272;-79
2023/07/07 07:26:55;;;;;;;2.63;2.43;;;17.90;1.00;;;;;;5055211;28;20209;-78
2023/07/07 07:29:20;;;;;;;3.27;2.43;;;18.00;1.00;;;;;;5055767;28;20201;-79
2023/07/07 07:31:46;;;;;;;2.93;2.33;;;18.20;1.00;;;;;;5055301;28;20636;-79
2023/07/07 07:34:22;;;;;;;3.57;2.23;;;18.30;1.00;;;;;;5055914;28;20166;-79
2023/07/07 07:36:48;;;;;;;2.87;2.43;;;18.40;99.90;;;;;;5054793;28;20176;-79
2023/07/07 07:39:13;;;;;;;3.30;2.03;;;18.60;1.00;;;;;;5054001;28;20545;-79
2023/07/07 07:41:39;;;;;;;58.57;16.50;;;18.80;1.00;;;;;;5054130;28;20640;-79
2023/07/07 07:44:04;;;;;;;3.07;2.30;;;18.90;48.90;;;;;;5055580;28;20186;-79
2023/07/07 07:46:30;;;;;;;2.87;2.33;;;19.10;1.00;;;;;;5055612;28;20173;-79
2023/07/07 07:48:56;;;;;;;2.70;2.23;;;19.30;1.00;;;;;;5054208;28;20197;-79
2023/07/07 07:51:21;;;;;;;2.93;2.17;;;19.50;1.00;;;;;;5053506;28;20204;-79
2023/07/07 07:53:47;;;;;;;2.53;2.17;;;19.70;1.00;;;;;;5054265;28;20209;-79
2023/07/07 07:56:13;;;;;;;3.60;2.13;;;19.90;99.90;;;;;;5055570;28;20182;-79
2023/07/07 07:58:38;;;;;;;3.00;1.90;;;20.00;99.90;;;;;;5055521;28;20185;-79
2023/07/07 08:01:04;;;;;;;4.40;2.47;;;20.20;99.90;;;;;;5054971;28;20704;-79
2023/07/07 08:03:30;;;;;;;2.77;2.10;;;20.40;99.90;;;;;;5053905;28;20217;-79
2023/07/07 08:05:55;;;;;;;3.30;1.93;;;20.60;1.00;;;;;;5053890;28;20178;-79
2023/07/07 08:08:21;;;;;;;2.92;1.80;;;20.80;99.90;;;;;;5055583;28;20197;-79
2023/07/07 08:10:47;;;;;;;2.78;2.03;;;21.00;99.90;;;;;;5053587;28;20551;-79
2023/07/07 08:13:12;;;;;;;3.10;2.30;;;21.20;1.00;;;;;;5054861;28;20194;-79
2023/07/07 08:15:38;;;;;;;36.95;17.17;;;21.40;1.00;;;;;;5054877;28;20166;-79
2023/07/07 08:18:03;;;;;;;66.80;5.40;;;21.60;1.00;;;;;;5055195;28;20170;-79
2023/07/07 08:20:30;;;;;;;2.53;1.90;;;21.70;1.00;;;;;;5053231;28;20232;-80
2023/07/07 08:22:56;;;;;;;3.90;2.08;;;21.90;1.00;;;;;;5055267;28;20198;-79
2023/07/07 08:25:22;;;;;;;2.45;2.00;;;22.10;99.90;;;;;;5053619;28;20202;-79
2023/07/07 08:27:48;;;;;;;3.03;2.00;;;22.20;99.90;;;;;;5055043;28;20256;-80
2023/07/07 08:30:13;;;;;;;2.60;1.75;;;22.30;99.90;;;;;;5053469;28;20265;-80
2023/07/07 08:32:39;;;;;;;2.92;1.90;;;22.60;99.90;;;;;;5053593;28;20197;-79
2023/07/07 08:35:05;;;;;;;2.83;1.90;;;22.80;99.90;;;;;;5054799;28;20734;-79
2023/07/07 08:37:32;;;;;;;121.38;62.83;;;23.00;99.90;;;;;;5053169;28;20165;-77
2023/07/07 08:39:58;;;;;;;2.25;1.67;;;23.10;99.90;;;;;;5054198;28;20170;-79
2023/07/07 08:42:39;;;;;;;2.78;1.98;;;23.20;99.90;;;;;;5054860;28;20198;-79
2023/07/07 08:45:13;;;;;;;151.52;28.40;;;23.30;99.90;;;;;;5053089;28;20181;-80
2023/07/07 08:47:46;;;;;;;77.35;5.20;;;23.50;99.90;;;;;;5053557;28;20169;-81
2023/07/07 08:50:35;;;;;;;38.05;2.88;;;23.70;99.90;;;;;;5052822;28;20181;-80
2023/07/07 08:53:24;;;;;;;2.55;2.03;;;23.80;99.90;;;;;;5053062;28;20209;-81
2023/07/07 08:55:52;;;;;;;2.28;1.88;;;24.00;99.90;;;;;;5053000;28;20223;-81
2023/07/07 08:58:26;;;;;;;2.88;2.00;;;24.10;99.90;;;;;;5054150;28;20169;-80
2023/07/07 09:01:19;;;;;;;67.10;5.78;;;24.20;99.90;;;;;;5052678;28;20174;-80
2023/07/07 09:03:48;;;;;;;67.15;4.97;;;24.40;99.90;;;;;;5054098;28;20188;-80
2023/07/07 09:06:27;;;;;;;22.65;2.78;;;24.60;99.90;;;;;;5053240;28;20696;-80
2023/07/07 09:09:14;;;;;;;2.03;1.50;;;24.80;99.90;;;;;;5054163;28;20194;-79
2023/07/07 09:11:58;;;;;;;2.50;2.30;;;25.20;99.90;;;;;;5053602;28;20161;-79
2023/07/07 09:14:26;;;;;;;3.25;2.08;;;25.40;99.90;;;;;;5053889;28;20211;-79
2023/07/07 09:16:55;;;;;;;2.97;2.13;;;25.40;99.90;;;;;;5054133;28;20173;-79
2023/07/07 09:19:36;;;;;;;2.85;1.98;;;25.40;99.90;;;;;;5052677;28;20570;-79
2023/07/07 09:22:29;;;;;;;2.60;1.92;;;25.30;99.90;;;;;;5052806;28;20204;-79
2023/07/07 09:25:16;;;;;;;3.15;1.98;;;25.70;99.90;;;;;;5054342;28;20161;-80
2023/07/07 09:27:49;;;;;;;4.57;2.15;;;26.00;99.90;;;;;;5052881;28;20169;-79
2023/07/07 09:30:40;;;;;;;4.38;2.13;;;26.10;99.90;;;;;;5053473;28;20162;-76
2023/07/07 09:33:11;;;;;;;3.58;2.35;;;26.10;99.90;;;;;;5052890;28;20255;-78
2023/07/07 09:35:44;;;;;;;3.35;2.03;;;26.10;99.90;;;;;;5054216;28;20173;-78
2023/07/07 09:38:41;;;;;;;4.28;2.33;;;26.30;99.90;;;;;;5053937;28;20655;-77
2023/07/07 09:41:13;;;;;;;3.08;2.10;;;26.30;89.20;;;;;;5052139;28;20675;-76
2023/07/07 09:43:51;;;;;;;3.15;2.00;;;26.10;73.50;;;;;;5054633;28;20189;-77
2023/07/07 09:46:20;;;;;;;2.55;1.92;;;26.00;65.10;;;;;;5054061;28;20166;-78
2023/07/07 09:49:16;;;;;;;2.90;2.30;;;26.40;68.50;;;;;;5053982;28;20205;-78
2023/07/07 09:51:59;;;;;;;3.67;2.05;;;26.50;62.70;;;;;;5052094;28;20165;-78
2023/07/07 09:54:26;;;;;;;86.78;7.00;;;26.60;52.60;;;;;;5052505;28;20173;-77
2023/07/07 09:56:52;;;;;;;271.92;21.55;;;26.50;50.10;;;;;;5053104;28;20260;-78
2023/07/07 09:59:23;;;;;;;3.38;2.00;;;26.80;56.60;;;;;;5052923;28;20201;-79
2023/07/07 10:01:51;;;;;;;6.88;6.15;;;26.60;48.00;;;;;;5051212;28;20170;-77
2023/07/07 10:04:19;;;;;;;2.42;2.20;;;26.60;45.70;;;;;;5052469;28;20234;-78
2023/07/07 10:06:56;;;;;;;2.95;2.30;;;26.70;44.50;;;;;;5053840;28;20169;-77
2023/07/07 10:09:22;;;;;;;2.90;2.13;;;27.00;74.60;;;;;;5051887;28;20576;-78
2023/07/07 10:11:49;;;;;;;2.42;2.00;;;27.40;49.80;;;;;;5050984;28;20252;-79
2023/07/07 10:14:16;;;;;;;2.35;2.15;;;27.40;41.40;;;;;;5052844;28;20162;-78
2023/07/07 10:17:09;;;;;;;4.00;2.30;;;27.60;41.30;;;;;;5053134;28;20180;-78
2023/07/07 10:19:42;;;;;;;2.45;2.10;;;27.50;37.00;;;;;;5051582;28;20675;-79
2023/07/07 10:22:12;;;;;;;2.30;2.10;;;27.60;37.50;;;;;;5052630;28;20205;-77
2023/07/07 10:24:38;;;;;;;2.83;2.13;;;27.70;36.00;;;;;;5051776;28;20273;-79
2023/07/07 10:27:04;;;;;;;2.47;2.10;;;27.80;28.40;;;;;;5051939;28;20252;-79
2023/07/07 10:29:37;;;;;;;2.38;1.85;;;27.80;26.40;;;;;;5052756;28;20564;-75
2023/07/07 10:32:03;;;;;;;60.55;4.40;;;27.90;26.20;;;;;;5052519;28;20699;-77
2023/07/07 10:34:33;;;;;;;10.95;2.38;;;27.70;24.60;;;;;;5053109;28;20186;-79
2023/07/07 10:36:59;;;;;;;2.83;2.17;;;27.80;23.30;;;;;;5053223;28;20641;-79
2023/07/07 10:39:31;;;;;;;2.60;2.30;;;28.20;25.10;;;;;;5053090;28;20649;-79
2023/07/07 10:41:57;;;;;;;2.90;2.50;;;28.40;21.10;;;;;;5052329;28;20177;-79
2023/07/07 10:44:27;;;;;;;2.85;2.47;;;28.10;16.70;;;;;;5052240;28;20170;-79
2023/07/07 10:46:53;;;;;;;2.60;2.22;;;28.00;14.20;;;;;;5053289;28;20639;-79
2023/07/07 10:49:24;;;;;;;28.17;3.45;;;28.40;19.50;;;;;;5053112;28;20263;-79
2023/07/07 10:52:13;;;;;;;3.95;2.40;;;28.50;16.60;;;;;;5052791;28;20158;-79
2023/07/07 10:54:59;;;;;;;4.20;2.25;;;28.60;11.40;;;;;;5015210;28;20264;-79
2023/07/07 10:57:36;;;;;;;3.40;2.30;;;28.80;9.60;;;;;;5015860;28;20185;-79
2023/07/07 11:00:02;;;;;;;2.63;2.35;;;29.00;5.30;;;;;;5048115;28;20173;-79
2023/07/07 11:02:52;;;;;;;2.63;2.20;;;28.60;2.70;;;;;;5051678;28;20202;-79
2023/07/07 11:05:24;;;;;;;5.07;2.30;;;28.90;4.70;;;;;;5051897;28;20170;-79
2023/07/07 11:08:21;;;;;;;2.92;2.63;;;28.40;2.30;;;;;;5052311;28;20155;-79
2023/07/07 11:10:58;;;;;;;3.28;2.40;;;28.40;5.60;;;;;;5051352;28;20165;-79
2023/07/07 11:13:43;;;;;;;2.70;2.30;;;28.40;5.40;;;;;;5052677;28;20193;-77
2023/07/07 11:16:30;;;;;;;2.78;2.47;;;28.10;3.70;;;;;;5055563;28;20173;-77
2023/07/07 11:18:56;;;;;;;3.80;2.60;;;28.10;5.30;;;;;;5054395;28;20209;-77
2023/07/07 11:21:38;;;;;;;3.13;2.50;;;28.40;18.30;;;;;;5053846;28;20204;-77
2023/07/07 11:24:17;;;;;;;4.60;2.53;;;28.70;1.00;;;;;;5053854;28;20275;-77
2023/07/07 11:26:48;;;;;;;2.78;2.58;;;29.10;1.00;;;;;;5054301;28;20165;-77
2023/07/07 11:29:45;;;;;;;3.22;2.47;;;29.10;1.00;;;;;;5055228;28;20205;-77
2023/07/07 11:32:38;;;;;;;123.82;44.75;;;29.30;1.00;;;;;;5054883;28;20185;-78
2023/07/07 11:35:26;;;;;;;3.17;2.72;;;29.60;1.00;;;;;;5037124;28;20251;-78
2023/07/07 11:38:09;;;;;;;2.80;2.50;;;29.60;1.00;;;;;;5055305;28;20237;-77
2023/07/07 11:41:02;;;;;;;4.07;2.42;;;29.60;1.00;;;;;;5036559;28;20170;-77
2023/07/07 11:43:55;;;;;;;2.85;2.50;;;29.90;1.00;;;;;;5036921;28;20569;-78
2023/07/07 11:46:43;;;;;;;4.22;2.42;;;30.10;1.00;;;;;;5036747;28;20170;-75
2023/07/07 11:49:24;;;;;;;2.75;2.50;;;29.70;1.00;;;;;;5055486;28;20185;-79
2023/07/07 11:52:02;;;;;;;3.90;2.70;;;29.70;1.00;;;;;;5017354;28;20166;-79
2023/07/07 11:54:47;;;;;;;4.72;2.70;;;30.00;1.00;;;;;;5043525;28;20174;-79
2023/07/07 11:57:31;;;;;;;3.55;2.70;;;30.20;1.00;;;;;;5055717;28;20237;-79
2023/07/07 12:00:32;;;;;;;3.30;2.60;;;29.80;1.00;;;;;;5055283;28;20227;-79
2023/07/07 12:03:22;;;;;;;4.55;2.72;;;29.80;1.00;;;;;;5055116;28;20201;-78
2023/07/07 12:05:50;;;;;;;3.60;2.55;;;30.30;1.00;;;;;;5055424;28;20161;-79
2023/07/07 12:08:21;;;;;;;4.00;2.25;;;30.70;1.00;;;;;;5029649;28;20205;-79
2023/07/07 12:10:57;;;;;;;4.78;2.90;;;30.30;1.00;;;;;;5055600;28;20517;-79
2023/07/07 12:13:27;;;;;;;3.40;2.53;;;30.30;1.00;;;;;;5037238;28;20196;-79
2023/07/07 12:16:09;;;;;;;6.40;2.60;;;30.10;1.00;;;;;;5055148;28;20170;-79
2023/07/07 12:18:39;;;;;;;4.40;2.90;;;30.50;1.00;;;;;;5056034;28;20235;-79
2023/07/07 12:21:13;;;;;;;3.00;2.70;;;30.40;1.00;;;;;;5037350;28;20534;-79
2023/07/07 12:23:45;;;;;;;2.60;2.40;;;30.60;1.00;;;;;;5038067;28;20577;-79
2023/07/07 12:26:25;;;;;;;3.38;2.60;;;30.60;1.00;;;;;;5037748;28;20170;-79
2023/07/07 12:28:55;;;;;;;3.00;2.47;;;30.80;1.00;;;;;;5055686;28;20185;-77
2023/07/07 12:31:22;;;;;;;3.45;2.67;;;31.30;1.00;;;;;;5038007;28;20166;-78
2023/07/07 12:33:51;;;;;;;2.78;2.58;;;31.80;1.00;;;;;;5055650;28;20197;-78
2023/07/07 12:36:20;;;;;;;4.60;3.17;;;31.10;1.00;;;;;;5056303;28;20200;-77
2023/07/07 12:38:51;;;;;;;4.93;3.00;;;30.90;1.00;;;;;;5037936;28;20273;-77
2023/07/07 12:41:24;;;;;;;3.00;2.70;;;31.10;1.00;;;;;;5054663;28;20158;-78
2023/07/07 12:43:58;;;;;;;3.17;2.70;;;31.40;1.00;;;;;;5036021;28;20224;-78
2023/07/07 12:46:29;;;;;;;2.70;2.15;;;31.60;1.00;;;;;;5035778;28;20180;-78
2023/07/07 12:48:59;;;;;;;3.10;2.70;;;31.40;1.00;;;;;;5035972;28;20197;-78
2023/07/07 12:51:31;;;;;;;4.13;2.70;;;31.40;1.00;;;;;;5053050;28;20158;-78
2023/07/07 12:53:57;;;;;;;2.70;2.47;;;31.00;1.00;;;;;;5035768;28;20227;-78
2023/07/07 12:56:28;;;;;;;3.42;3.03;;;31.20;1.00;;;;;;5053698;28;20193;-78
2023/07/07 12:59:34;;;;;;;3.33;2.63;;;31.00;1.00;;;;;;5053431;28;20623;-78
2023/07/07 13:02:16;;;;;;;3.47;2.40;;;31.20;1.00;;;;;;5035127;28;20177;-77
2023/07/07 13:04:48;;;;;;;3.47;2.60;;;31.10;1.00;;;;;;5053291;28;20189;-77
2023/07/07 13:07:19;;;;;;;2.80;2.60;;;31.50;1.00;;;;;;5045187;28;20181;-78
2023/07/07 13:09:50;;;;;;;3.50;2.60;;;31.70;1.00;;;;;;5032683;28;20198;-78